createdAt,value
2023-05-30T00:00:19.798Z,9.85
2023-05-30T00:02:47.550Z,10.07
2023-05-30T00:05:14.964Z,9.80
2023-05-30T00:07:42.357Z,10.63
2023-05-30T00:10:10.312Z,9.98
2023-05-30T00:12:37.716Z,9.98
2023-05-30T00:15:05.324Z,9.82
2023-05-30T00:17:34.019Z,9.43
2023-05-30T00:20:01.943Z,11.98
2023-05-30T00:22:30.221Z,9.50
2023-05-30T00:25:01.044Z,10.48
2023-05-30T00:27:28.790Z,10.25
2023-05-30T00:29:56.195Z,9.63
2023-05-30T00:32:23.923Z,10.23
2023-05-30T00:34:51.449Z,10.80
2023-05-30T00:37:18.806Z,10.20
2023-05-30T00:39:47.314Z,10.13
2023-05-30T00:42:14.723Z,9.82
2023-05-30T00:44:42.075Z,9.85
2023-05-30T00:47:09.755Z,10.13
2023-05-30T00:49:37.126Z,10.23
2023-05-30T00:52:04.761Z,10.93
2023-05-30T00:54:32.656Z,10.45
2023-05-30T00:57:00.062Z,9.93
2023-05-30T00:59:27.516Z,10.88
2023-05-30T01:01:55.257Z,10.80
2023-05-30T01:04:23.463Z,9.93
2023-05-30T01:06:50.977Z,10.38
2023-05-30T01:09:19.401Z,9.35
2023-05-30T01:11:55.494Z,10.60
2023-05-30T01:14:36.182Z,10.35
2023-05-30T01:17:39.516Z,9.65
2023-05-30T01:20:08.666Z,11.50
2023-05-30T01:22:49.855Z,10.63
2023-05-30T01:25:50.779Z,10.13
2023-05-30T01:28:22.259Z,10.30
2023-05-30T01:30:50.566Z,9.40
2023-05-30T01:33:18.445Z,10.70
2023-05-30T01:35:46.629Z,10.10
2023-05-30T01:38:14.446Z,9.70
2023-05-30T01:40:50.060Z,10.20
2023-05-30T01:43:30.680Z,9.13
2023-05-30T01:46:04.340Z,9.25
2023-05-30T01:48:59.362Z,9.93
2023-05-30T01:51:35.772Z,9.55
2023-05-30T01:54:04.640Z,9.95
2023-05-30T01:56:32.555Z,9.27
2023-05-30T01:59:00.051Z,10.15
2023-05-30T02:01:29.364Z,9.60
2023-05-30T02:03:57.042Z,9.10
2023-05-30T02:06:24.810Z,9.70
2023-05-30T02:08:52.232Z,9.68
2023-05-30T02:11:19.956Z,10.40
2023-05-30T02:13:47.702Z,8.95
2023-05-30T02:16:15.082Z,9.20
2023-05-30T02:18:42.702Z,10.80
2023-05-30T02:21:10.387Z,9.50
2023-05-30T02:23:37.937Z,10.52
2023-05-30T02:26:06.207Z,10.15
2023-05-30T02:28:34.296Z,9.80
2023-05-30T02:31:02.573Z,9.68
2023-05-30T02:33:30.049Z,9.57
2023-05-30T02:35:57.726Z,9.48
2023-05-30T02:38:25.104Z,9.77
2023-05-30T02:40:52.907Z,9.95
2023-05-30T02:43:21.537Z,9.10
2023-05-30T02:45:49.261Z,9.27
2023-05-30T02:48:17.320Z,9.32
2023-05-30T02:50:44.999Z,9.75
2023-05-30T02:53:13.317Z,9.38
2023-05-30T02:55:43.909Z,9.38
2023-05-30T02:58:16.809Z,9.32
2023-05-30T03:00:44.836Z,9.60
2023-05-30T03:03:12.922Z,10.00
2023-05-30T03:05:40.707Z,10.35
2023-05-30T03:08:18.022Z,10.75
2023-05-30T03:10:53.212Z,10.55
2023-05-30T03:13:21.071Z,10.05
2023-05-30T03:15:49.783Z,10.18
2023-05-30T03:18:18.470Z,9.82
2023-05-30T03:20:45.815Z,10.15
2023-05-30T03:23:13.588Z,9.57
2023-05-30T03:25:41.514Z,9.82
2023-05-30T03:28:08.891Z,9.73
2023-05-30T03:30:36.841Z,10.02
2023-05-30T03:33:04.759Z,9.52
2023-05-30T03:35:33.384Z,10.15
2023-05-30T03:38:04.273Z,9.32
2023-05-30T03:40:31.991Z,9.20
2023-05-30T03:43:00.545Z,9.52
2023-05-30T03:45:28.011Z,9.52
2023-05-30T03:47:56.538Z,9.05
2023-05-30T03:50:23.933Z,9.35
2023-05-30T03:52:51.382Z,9.13
2023-05-30T03:55:19.039Z,8.40
2023-05-30T03:57:48.055Z,9.55
2023-05-30T04:00:16.523Z,8.43
2023-05-30T04:02:44.287Z,8.82
2023-05-30T04:05:11.668Z,10.25
2023-05-30T04:07:39.507Z,9.68
2023-05-30T04:10:07.775Z,8.68
2023-05-30T04:12:35.159Z,9.02
2023-05-30T04:15:02.634Z,10.43
2023-05-30T04:17:32.133Z,9.57
2023-05-30T04:19:59.685Z,11.27
2023-05-30T04:22:27.192Z,11.00
2023-05-30T04:24:54.909Z,10.43
2023-05-30T04:27:22.464Z,10.15
2023-05-30T04:29:49.925Z,10.30
2023-05-30T04:32:17.822Z,10.82
2023-05-30T04:34:45.275Z,10.35
2023-05-30T04:37:19.152Z,11.25
2023-05-30T04:39:46.825Z,9.63
2023-05-30T04:42:14.875Z,10.98
2023-05-30T04:44:42.302Z,10.45
2023-05-30T04:47:11.643Z,11.20
2023-05-30T04:49:40.809Z,10.88
2023-05-30T04:52:08.904Z,10.90
2023-05-30T04:54:36.588Z,9.90
2023-05-30T04:57:04.089Z,10.48
2023-05-30T04:59:31.666Z,10.93
2023-05-30T05:01:59.316Z,11.07
2023-05-30T05:04:26.782Z,12.00
2023-05-30T05:06:54.167Z,12.13
2023-05-30T05:09:23.436Z,9.95
2023-05-30T05:11:51.586Z,11.20
2023-05-30T05:14:18.987Z,10.95
2023-05-30T05:16:46.616Z,11.60
2023-05-30T05:19:13.990Z,11.75
2023-05-30T05:21:41.434Z,11.38
2023-05-30T05:24:09.169Z,11.90
2023-05-30T05:26:36.835Z,11.50
2023-05-30T05:29:04.258Z,11.63
2023-05-30T05:31:34.438Z,11.10
2023-05-30T05:34:02.019Z,12.13
2023-05-30T05:36:29.455Z,12.07
2023-05-30T05:38:57.079Z,11.48
2023-05-30T05:41:24.481Z,11.15
2023-05-30T05:43:51.883Z,11.02
2023-05-30T05:46:19.629Z,11.18
2023-05-30T05:48:47.104Z,11.98
2023-05-30T05:51:14.535Z,10.75
2023-05-30T05:53:42.249Z,11.80
2023-05-30T05:56:09.625Z,10.63
2023-05-30T05:58:37.135Z,11.35
2023-05-30T06:01:05.361Z,11.18
2023-05-30T06:03:33.005Z,12.37
2023-05-30T06:06:00.620Z,11.85
2023-05-30T06:08:28.051Z,11.70
2023-05-30T06:10:56.238Z,12.10
2023-05-30T06:13:27.082Z,12.32
2023-05-30T06:15:54.545Z,12.02
2023-05-30T06:18:22.233Z,12.07
2023-05-30T06:20:49.758Z,12.37
2023-05-30T06:23:17.270Z,12.20
2023-05-30T06:25:44.894Z,11.23
2023-05-30T06:28:12.295Z,11.10
2023-05-30T06:30:39.738Z,12.23
2023-05-30T06:33:07.379Z,12.52
2023-05-30T06:35:35.841Z,12.40
2023-05-30T06:38:03.271Z,11.98
2023-05-30T06:40:31.053Z,11.20
2023-05-30T06:42:58.400Z,11.20
2023-05-30T06:45:25.800Z,12.25
2023-05-30T06:47:53.544Z,12.15
2023-05-30T06:50:21.189Z,13.05
2023-05-30T06:52:48.551Z,12.30
2023-05-30T06:55:16.548Z,12.40
2023-05-30T06:57:47.331Z,12.37
2023-05-30T07:00:16.794Z,12.20
2023-05-30T07:02:44.270Z,12.65
2023-05-30T07:05:11.835Z,12.35
2023-05-30T07:07:40.505Z,12.45
2023-05-30T07:10:08.602Z,12.35
2023-05-30T07:12:36.148Z,11.50
2023-05-30T07:15:04.140Z,11.98
2023-05-30T07:17:33.754Z,11.30
2023-05-30T07:20:01.186Z,10.60
2023-05-30T07:22:29.134Z,10.52
2023-05-30T07:24:56.533Z,11.25
2023-05-30T07:27:24.467Z,10.85
2023-05-30T07:29:52.296Z,11.52
2023-05-30T07:32:19.655Z,11.80
2023-05-30T07:34:47.042Z,11.73
2023-05-30T07:37:14.833Z,12.93
2023-05-30T07:39:42.278Z,12.32
2023-05-30T07:42:09.681Z,12.52
2023-05-30T07:44:37.268Z,11.52
2023-05-30T07:47:04.928Z,11.93
2023-05-30T07:49:32.288Z,11.57
2023-05-30T07:51:59.947Z,11.65
2023-05-30T07:54:27.375Z,12.73
2023-05-30T07:56:55.017Z,11.93
2023-05-30T07:59:22.625Z,11.93
2023-05-30T08:01:50.067Z,11.18
2023-05-30T08:04:17.681Z,12.18
2023-05-30T08:06:45.137Z,12.52
2023-05-30T08:09:12.711Z,11.82
2023-05-30T08:11:40.894Z,11.80
2023-05-30T08:14:08.298Z,12.07
2023-05-30T08:16:35.773Z,12.02
2023-05-30T08:19:04.057Z,13.02
2023-05-30T08:21:33.003Z,12.07
2023-05-30T08:24:01.782Z,11.80
2023-05-30T08:26:35.695Z,11.90
2023-05-30T08:29:05.143Z,11.35
2023-05-30T08:31:32.871Z,11.38
2023-05-30T08:34:03.906Z,12.20
2023-05-30T08:36:31.483Z,11.95
2023-05-30T08:39:13.866Z,11.88
2023-05-30T08:41:42.195Z,12.00
2023-05-30T08:44:09.899Z,11.85
2023-05-30T08:46:39.927Z,12.27
2023-05-30T08:49:08.603Z,11.35
2023-05-30T08:51:37.323Z,12.48
2023-05-30T08:54:04.801Z,12.63
2023-05-30T08:56:38.904Z,12.52
2023-05-30T08:59:09.241Z,12.65
2023-05-30T09:01:37.139Z,11.98
2023-05-30T09:04:07.593Z,12.98
2023-05-30T09:06:37.290Z,12.90
2023-05-30T09:09:04.767Z,11.60
2023-05-30T09:11:32.245Z,12.00
2023-05-30T09:13:59.923Z,12.37
2023-05-30T09:16:31.032Z,12.27
2023-05-30T09:19:01.373Z,12.27
2023-05-30T09:21:32.820Z,12.27
2023-05-30T09:24:04.656Z,12.70
2023-05-30T09:26:35.106Z,12.55
2023-05-30T09:29:11.743Z,12.68
2023-05-30T09:31:39.467Z,13.75
2023-05-30T09:34:06.976Z,12.40
2023-05-30T09:36:34.324Z,13.15
2023-05-30T09:39:03.397Z,13.02
2023-05-30T09:41:31.158Z,13.07
2023-05-30T09:43:58.850Z,12.63
2023-05-30T09:46:28.004Z,13.02
2023-05-30T09:48:56.264Z,11.98
2023-05-30T09:51:26.424Z,11.85
2023-05-30T09:53:57.696Z,12.40
2023-05-30T09:56:32.057Z,12.70
2023-05-30T09:59:02.796Z,12.95
2023-05-30T10:01:39.292Z,12.55
2023-05-30T10:04:13.190Z,11.95
2023-05-30T10:06:42.840Z,11.63
2023-05-30T10:09:11.197Z,12.07
2023-05-30T10:11:39.774Z,11.20
2023-05-30T10:14:20.387Z,11.43
2023-05-30T10:17:15.396Z,11.88
2023-05-30T10:19:51.752Z,11.63
2023-05-30T10:22:25.780Z,11.73
2023-05-30T10:24:53.689Z,12.25
2023-05-30T10:27:32.359Z,10.65
2023-05-30T10:30:09.398Z,11.00
2023-05-30T10:32:48.674Z,11.20
2023-05-30T10:35:16.508Z,12.55
2023-05-30T10:37:43.969Z,12.07
2023-05-30T10:40:27.047Z,11.80
2023-05-30T10:43:15.004Z,12.85
2023-05-30T10:46:16.532Z,12.02
2023-05-30T10:49:01.192Z,11.90
2023-05-30T10:51:28.623Z,11.90
2023-05-30T10:53:57.163Z,11.50
2023-05-30T10:56:32.904Z,12.55
2023-05-30T10:59:01.798Z,12.80
2023-05-30T11:01:33.157Z,11.95
2023-05-30T11:04:09.036Z,12.13
2023-05-30T11:06:46.997Z,12.50
2023-05-30T11:09:17.305Z,13.50
2023-05-30T11:11:46.397Z,12.68
2023-05-30T11:14:14.848Z,13.60
2023-05-30T11:16:50.058Z,12.15
2023-05-30T11:19:19.787Z,13.23
2023-05-30T11:22:03.938Z,13.75
2023-05-30T11:24:32.006Z,12.88
2023-05-30T11:27:08.366Z,12.27
2023-05-30T11:29:42.010Z,11.82
2023-05-30T11:32:10.007Z,12.00
2023-05-30T11:34:37.980Z,11.48
2023-05-30T11:37:05.736Z,12.02
2023-05-30T11:39:37.490Z,11.15
2023-05-30T11:42:06.741Z,12.37
2023-05-30T11:44:34.708Z,11.55
2023-05-30T11:47:58.553Z,12.50
2023-05-30T11:51:03.449Z,11.52
2023-05-30T11:53:31.614Z,12.15
2023-05-30T11:55:59.022Z,12.52
2023-05-30T11:58:26.385Z,12.88
2023-05-30T12:00:54.062Z,12.70
2023-05-30T12:03:21.901Z,12.37
2023-05-30T12:05:49.643Z,11.93
2023-05-30T12:08:20.357Z,11.35
2023-05-30T12:10:51.330Z,11.32
2023-05-30T12:13:22.335Z,11.88
2023-05-30T12:15:50.834Z,12.35
2023-05-30T12:18:18.895Z,11.95
2023-05-30T12:20:46.685Z,11.93
2023-05-30T12:23:14.564Z,11.50
2023-05-30T12:25:50.252Z,12.00
2023-05-30T12:28:17.941Z,12.55
2023-05-30T12:30:45.684Z,11.45
2023-05-30T12:33:15.897Z,12.98
2023-05-30T12:35:43.616Z,12.68
2023-05-30T12:38:13.891Z,12.50
2023-05-30T12:40:47.085Z,12.50
2023-05-30T12:43:26.551Z,11.73
2023-05-30T12:45:53.974Z,13.40
2023-05-30T12:48:21.639Z,12.57
2023-05-30T12:50:49.302Z,12.60
2023-05-30T12:53:16.726Z,13.57
2023-05-30T12:55:44.408Z,12.75
2023-05-30T12:58:11.831Z,11.98
2023-05-30T13:00:39.267Z,12.43
2023-05-30T13:03:07.078Z,11.93
2023-05-30T13:05:34.695Z,12.55
2023-05-30T13:08:02.099Z,12.00
2023-05-30T13:10:29.754Z,13.43
2023-05-30T13:12:57.201Z,12.88
2023-05-30T13:15:24.602Z,12.85
2023-05-30T13:17:52.718Z,12.60
2023-05-30T13:20:20.176Z,12.37
2023-05-30T13:22:47.604Z,13.27
2023-05-30T13:25:15.408Z,12.85
2023-05-30T13:27:44.922Z,13.05
2023-05-30T13:30:13.367Z,12.20
2023-05-30T13:32:41.190Z,12.02
2023-05-30T13:35:09.160Z,12.68
2023-05-30T13:37:36.731Z,11.45
2023-05-30T13:40:05.593Z,12.18
2023-05-30T13:42:37.574Z,13.05
2023-05-30T13:45:06.186Z,12.25
2023-05-30T13:47:33.667Z,12.93
2023-05-30T13:50:01.103Z,12.63
2023-05-30T13:52:29.579Z,12.68
2023-05-30T13:54:57.000Z,12.68
2023-05-30T13:57:24.589Z,12.75
2023-05-30T13:59:52.283Z,12.77
2023-05-30T14:02:21.820Z,13.57
2023-05-30T14:04:49.622Z,12.73
2023-05-30T14:07:17.210Z,12.50
2023-05-30T14:09:45.039Z,13.57
2023-05-30T14:12:12.733Z,13.02
2023-05-30T14:14:40.148Z,12.10
2023-05-30T14:17:09.514Z,12.63
2023-05-30T14:19:37.700Z,12.57
2023-05-30T14:22:07.374Z,13.05
2023-05-30T14:24:35.057Z,12.27
2023-05-30T14:27:02.697Z,11.98
2023-05-30T14:29:30.116Z,12.40
2023-05-30T14:31:58.819Z,12.63
2023-05-30T14:34:26.543Z,11.88
2023-05-30T14:36:54.010Z,12.48
2023-05-30T14:39:21.434Z,12.07
2023-05-30T14:41:50.763Z,13.02
2023-05-30T14:44:18.191Z,12.45
2023-05-30T14:46:45.634Z,12.23
2023-05-30T14:49:13.328Z,12.85
2023-05-30T14:51:40.876Z,13.20
2023-05-30T14:54:09.395Z,13.38
2023-05-30T14:56:37.719Z,12.95
2023-05-30T14:59:05.154Z,14.23
2023-05-30T15:01:45.280Z,14.35
2023-05-30T15:04:16.125Z,14.40
2023-05-30T15:06:44.508Z,13.45
2023-05-30T15:09:13.599Z,13.25
2023-05-30T15:11:41.943Z,12.70
2023-05-30T15:14:09.387Z,17.40
2023-05-30T15:16:38.272Z,21.17
2023-05-30T15:19:07.908Z,19.33
2023-05-30T15:21:35.738Z,18.30
2023-05-30T15:24:03.235Z,17.65
2023-05-30T15:26:30.936Z,16.58
2023-05-30T15:28:58.341Z,15.60
2023-05-30T15:31:26.152Z,14.55
2023-05-30T15:33:53.893Z,14.13
2023-05-30T15:36:21.943Z,15.20
2023-05-30T15:38:49.336Z,14.85
2023-05-30T15:41:17.053Z,13.40
2023-05-30T15:43:44.487Z,14.87
2023-05-30T15:46:13.549Z,12.80
2023-05-30T15:48:41.342Z,14.45
2023-05-30T15:51:08.767Z,13.70
2023-05-30T15:53:36.122Z,13.73
2023-05-30T15:56:03.893Z,12.48
2023-05-30T15:58:31.378Z,12.98
2023-05-30T16:00:59.066Z,14.20
2023-05-30T16:03:26.910Z,12.77
2023-05-30T16:05:54.332Z,12.93
2023-05-30T16:08:21.764Z,11.05
2023-05-30T16:10:49.392Z,11.60
2023-05-30T16:13:17.306Z,11.30
2023-05-30T16:15:44.694Z,10.63
2023-05-30T16:18:12.403Z,9.32
2023-05-30T16:20:43.735Z,9.55
2023-05-30T16:23:11.411Z,9.02
2023-05-30T16:25:39.079Z,8.85
2023-05-30T16:28:06.474Z,9.15
2023-05-30T16:30:33.877Z,9.77
2023-05-30T16:33:01.582Z,9.60
2023-05-30T16:35:29.028Z,10.70
2023-05-30T16:37:56.444Z,10.52
2023-05-30T16:40:24.076Z,10.20
2023-05-30T16:42:51.873Z,10.43
2023-05-30T16:45:19.344Z,10.43
2023-05-30T16:47:47.065Z,10.40
2023-05-30T16:50:15.199Z,9.60
2023-05-30T16:52:42.754Z,8.88
2023-05-30T16:55:10.416Z,8.95
2023-05-30T16:57:37.908Z,9.68
2023-05-30T17:00:05.672Z,9.57
2023-05-30T17:02:33.424Z,9.52
2023-05-30T17:05:02.040Z,8.27
2023-05-30T17:07:29.444Z,7.95
2023-05-30T17:09:57.110Z,8.20
2023-05-30T17:12:24.529Z,7.60
2023-05-30T17:14:52.011Z,7.82
2023-05-30T17:17:19.683Z,8.73
2023-05-30T17:19:47.087Z,8.63
2023-05-30T17:22:14.535Z,7.28
2023-05-30T17:24:42.228Z,8.00
2023-05-30T17:27:09.682Z,7.72
2023-05-30T17:29:38.420Z,7.32
2023-05-30T17:32:07.438Z,7.62
2023-05-30T17:34:34.974Z,8.18
2023-05-30T17:37:03.334Z,8.48
2023-05-30T17:39:31.451Z,7.85
2023-05-30T17:41:58.845Z,8.30
2023-05-30T17:44:26.283Z,8.57
2023-05-30T17:46:53.933Z,7.50
2023-05-30T17:49:21.303Z,7.75
2023-05-30T17:51:48.770Z,8.35
2023-05-30T17:54:16.428Z,9.20
2023-05-30T17:56:43.813Z,8.52
2023-05-30T17:59:11.321Z,9.20
2023-05-30T18:01:39.080Z,8.02
2023-05-30T18:04:06.857Z,8.02
2023-05-30T18:06:34.268Z,8.73
2023-05-30T18:09:01.689Z,7.78
2023-05-30T18:11:29.378Z,7.68
2023-05-30T18:13:56.787Z,7.93
2023-05-30T18:16:24.295Z,8.32
2023-05-30T18:18:52.047Z,8.60
2023-05-30T18:21:19.448Z,8.65
2023-05-30T18:23:46.897Z,8.35
2023-05-30T18:26:14.522Z,7.93
2023-05-30T18:28:42.399Z,7.80
2023-05-30T18:31:09.959Z,7.90
2023-05-30T18:33:37.627Z,7.87
2023-05-30T18:36:13.628Z,7.93
2023-05-30T18:38:42.815Z,6.93
2023-05-30T18:41:14.039Z,7.28
2023-05-30T18:43:42.024Z,8.13
2023-05-30T18:46:09.980Z,7.32
2023-05-30T18:48:45.164Z,8.18
2023-05-30T18:51:14.828Z,8.23
2023-05-30T18:53:43.127Z,7.53
2023-05-30T18:56:12.305Z,7.47
2023-05-30T18:58:42.181Z,7.80
2023-05-30T19:01:09.939Z,8.10
2023-05-30T19:03:39.565Z,8.10
2023-05-30T19:06:07.423Z,7.32
2023-05-30T19:08:34.787Z,8.32
2023-05-30T19:11:02.214Z,7.80
2023-05-30T19:13:29.872Z,8.23
2023-05-30T19:15:57.322Z,8.75
2023-05-30T19:18:25.941Z,8.13
2023-05-30T19:20:55.548Z,8.10
2023-05-30T19:23:23.106Z,7.30
2023-05-30T19:25:50.797Z,17.73
2023-05-30T19:28:18.532Z,40.28
2023-05-30T19:30:45.961Z,37.97
2023-05-30T19:33:13.356Z,29.40
2023-05-30T19:35:41.042Z,22.85
2023-05-30T19:38:08.410Z,16.65
2023-05-30T19:40:35.875Z,11.90
2023-05-30T19:43:04.648Z,10.90
2023-05-30T19:45:32.073Z,8.98
2023-05-30T19:47:59.527Z,9.48
2023-05-30T19:50:27.231Z,8.77
2023-05-30T19:52:55.227Z,8.05
2023-05-30T19:55:24.716Z,8.50
2023-05-30T19:57:52.347Z,8.32
2023-05-30T20:00:19.762Z,7.10
2023-05-30T20:02:47.447Z,6.78
2023-05-30T20:05:14.999Z,7.68
2023-05-30T20:07:42.386Z,7.68
2023-05-30T20:10:10.179Z,6.62
2023-05-30T20:12:37.553Z,7.40
2023-05-30T20:15:05.380Z,7.70
2023-05-30T20:17:34.174Z,7.37
2023-05-30T20:20:01.600Z,7.28
2023-05-30T20:22:29.007Z,7.35
2023-05-30T20:24:56.906Z,7.07
2023-05-30T20:27:24.335Z,7.35
2023-05-30T20:29:51.750Z,7.57
2023-05-30T20:32:19.460Z,7.68
2023-05-30T20:34:47.584Z,7.62
2023-05-30T20:37:15.069Z,7.53
2023-05-30T20:39:42.783Z,7.57
2023-05-30T20:42:10.512Z,6.80
2023-05-30T20:44:37.899Z,7.30
2023-05-30T20:47:05.746Z,8.57
2023-05-30T20:49:33.413Z,7.37
2023-05-30T20:52:01.076Z,8.25
2023-05-30T20:54:28.919Z,7.55
2023-05-30T20:56:58.832Z,7.65
2023-05-30T20:59:26.237Z,7.35
2023-05-30T21:01:53.909Z,8.45
2023-05-30T21:04:21.314Z,7.00
2023-05-30T21:06:48.716Z,7.68
2023-05-30T21:09:16.369Z,7.15
2023-05-30T21:11:43.753Z,8.23
2023-05-30T21:14:11.243Z,7.70
2023-05-30T21:16:38.935Z,7.07
2023-05-30T21:19:07.525Z,6.85
2023-05-30T21:21:34.960Z,7.37
2023-05-30T21:24:04.882Z,8.15
2023-05-30T21:26:32.365Z,7.22
2023-05-30T21:29:00.071Z,8.05
2023-05-30T21:31:28.057Z,7.62
2023-05-30T21:33:55.476Z,7.93
2023-05-30T21:36:22.938Z,7.85
2023-05-30T21:38:50.821Z,9.07
2023-05-30T21:41:19.206Z,8.00
2023-05-30T21:43:47.249Z,8.15
2023-05-30T21:46:15.027Z,8.10
2023-05-30T21:48:42.454Z,7.28
2023-05-30T21:51:09.846Z,7.75
2023-05-30T21:53:37.537Z,7.90
2023-05-30T21:56:05.151Z,7.90
2023-05-30T21:58:32.511Z,8.13
2023-05-30T22:01:02.026Z,8.18
2023-05-30T22:03:31.419Z,7.97
2023-05-30T22:05:58.924Z,8.80
2023-05-30T22:08:26.385Z,7.62
2023-05-30T22:10:54.016Z,9.20
2023-05-30T22:13:21.415Z,9.95
2023-05-30T22:15:48.845Z,8.77
2023-05-30T22:18:16.572Z,8.85
2023-05-30T22:20:44.095Z,8.73
2023-05-30T22:23:11.571Z,8.00
2023-05-30T22:25:39.264Z,8.50
2023-05-30T22:28:06.626Z,8.43
2023-05-30T22:30:33.995Z,7.20
2023-05-30T22:33:01.639Z,7.35
2023-05-30T22:35:29.941Z,7.53
2023-05-30T22:37:57.364Z,7.78
2023-05-30T22:40:25.038Z,7.80
2023-05-30T22:42:52.532Z,7.80
2023-05-30T22:45:19.974Z,7.25
2023-05-30T22:47:47.741Z,6.90
2023-05-30T22:50:15.213Z,7.12
2023-05-30T22:52:42.664Z,7.07
2023-05-30T22:55:10.382Z,7.68
2023-05-30T22:57:37.807Z,7.20
2023-05-30T23:00:07.018Z,7.18
2023-05-30T23:02:34.744Z,7.70
2023-05-30T23:05:02.241Z,7.70
2023-05-30T23:07:29.604Z,8.95
2023-05-30T23:09:57.286Z,8.52
2023-05-30T23:12:24.763Z,9.00
2023-05-30T23:14:52.123Z,8.52
2023-05-30T23:17:19.775Z,8.20
2023-05-30T23:19:47.175Z,8.73
2023-05-30T23:22:14.587Z,7.20
2023-05-30T23:24:42.342Z,8.25
2023-05-30T23:27:09.775Z,8.50
2023-05-30T23:29:37.180Z,8.40
2023-05-30T23:32:05.282Z,8.70
2023-05-30T23:34:32.698Z,9.15
2023-05-30T23:37:00.126Z,8.48
2023-05-30T23:39:27.790Z,7.62
2023-05-30T23:41:55.156Z,8.68
2023-05-30T23:44:23.671Z,8.13
2023-05-30T23:46:51.449Z,8.85
2023-05-30T23:49:18.833Z,8.80
2023-05-30T23:51:49.382Z,8.90
2023-05-30T23:54:17.259Z,7.50
2023-05-30T23:56:44.694Z,7.68
2023-05-30T23:59:12.120Z,9.00
